Time;durP1;ratioP1;P1;durP2;ratioP2;P2;SDS_P1;SDS_P2;PMS_P1;PMS_P2;Temp;Humidity;BMP_temperature;BMP_pressure;BME280_temperature;BME280_humidity;BME280_pressure;Samples;Min_cycle;Max_cycle;Signal;HPM_P1;HPM_P2
2023/12/07 00:01:37;;;;;;;9.05;4.80;;;2.50;99.90;;;2.18;100.00;101415.84;5230541;28;20056;-48
2023/12/07 00:04:09;;;;;;;13.60;5.78;;;2.50;99.90;;;2.18;100.00;101415.84;5224938;28;20047;-47
2023/12/07 00:06:41;;;;;;;12.00;5.22;;;2.50;99.90;;;2.18;100.00;101410.69;5242467;28;20049;-47
2023/12/07 00:09:14;;;;;;;12.10;5.40;;;2.50;99.90;;;2.14;100.00;101408.63;5225056;28;20439;-46
2023/12/07 00:11:47;;;;;;;13.02;5.60;;;2.50;99.90;;;2.12;100.00;101412.78;5241453;28;20138;-50
2023/12/07 00:14:19;;;;;;;10.82;5.60;;;2.50;99.90;;;2.06;100.00;101415.75;5228306;28;20055;-48
2023/12/07 00:16:51;;;;;;;11.55;5.03;;;2.40;99.90;;;2.01;100.00;101409.34;5246465;28;20052;-48
2023/12/07 00:19:24;;;;;;;10.90;4.63;;;2.40;99.90;;;1.99;100.00;101407.44;5237039;28;20052;-47
2023/12/07 00:21:56;;;;;;;11.50;4.90;;;2.40;99.90;;;2.00;100.00;101404.09;5227168;28;20439;-47
2023/12/07 00:24:30;;;;;;;10.98;5.32;;;2.30;99.90;;;2.02;100.00;101410.25;5234152;28;20056;-47
2023/12/07 00:27:03;;;;;;;9.25;4.80;;;2.30;99.90;;;2.01;100.00;101406.78;5243316;28;20056;-52
2023/12/07 00:29:37;;;;;;;11.30;5.15;;;2.40;99.90;;;2.00;100.00;101414.38;5225939;28;20036;-49
2023/12/07 00:32:11;;;;;;;14.02;6.25;;;2.30;99.90;;;2.04;100.00;101413.84;5224863;28;20578;-48
2023/12/07 00:34:43;;;;;;;11.25;5.43;;;2.30;99.90;;;2.07;100.00;101406.38;5246508;28;20053;-52
2023/12/07 00:37:16;;;;;;;12.38;6.00;;;2.40;99.90;;;2.11;100.00;101404.16;5228625;28;20048;-50
2023/12/07 00:39:50;;;;;;;13.70;6.82;;;2.40;99.90;;;2.16;100.00;101409.69;5245532;28;20048;-47
2023/12/07 00:42:22;;;;;;;12.18;5.32;;;2.50;99.90;;;2.15;100.00;101406.22;5228897;28;20056;-48
2023/12/07 00:44:55;;;;;;;11.30;5.78;;;2.50;99.90;;;2.14;100.00;101404.38;5244508;28;20507;-48
2023/12/07 00:47:27;;;;;;;12.15;5.82;;;2.50;99.90;;;2.16;100.00;101408.00;5250420;28;20059;-47
2023/12/07 00:49:59;;;;;;;13.10;5.65;;;2.50;99.90;;;2.19;100.00;101412.47;5228198;28;20048;-52
2023/12/07 00:52:32;;;;;;;11.85;5.20;;;2.50;99.90;;;2.23;100.00;101417.09;5245313;28;20044;-51
2023/12/07 00:55:07;;;;;;;14.07;6.00;;;2.50;99.90;;;2.25;100.00;101410.38;5243666;28;20059;-48
2023/12/07 00:57:40;;;;;;;12.43;5.43;;;2.60;99.90;;;2.30;100.00;101419.34;5229852;28;20040;-47
2023/12/07 01:00:13;;;;;;;13.52;6.38;;;2.60;99.90;;;2.34;100.00;101418.78;5243950;28;20041;-49
2023/12/07 01:02:45;;;;;;;13.65;6.40;;;2.60;99.90;;;2.37;100.00;101415.59;5245008;28;20090;-49
2023/12/07 01:05:18;;;;;;;13.38;5.93;;;2.70;99.90;;;2.41;100.00;101418.53;5228243;28;20049;-47
2023/12/07 01:07:50;;;;;;;13.50;6.28;;;2.70;99.90;;;2.47;100.00;101418.06;5244805;28;20056;-48
2023/12/07 01:10:24;;;;;;;14.18;6.80;;;2.80;99.90;;;2.49;100.00;101423.34;5242551;28;20049;-50
2023/12/07 01:12:56;;;;;;;13.82;6.10;;;2.80;99.90;;;2.50;100.00;101413.16;5239504;28;20124;-48
2023/12/07 01:15:28;;;;;;;12.68;6.05;;;2.80;99.90;;;2.49;100.00;101403.66;5229539;28;20060;-53
2023/12/07 01:18:01;;;;;;;13.20;5.55;;;2.80;99.90;;;2.51;100.00;101411.50;5228188;28;20400;-51
2023/12/07 01:20:33;;;;;;;11.30;5.22;;;2.80;99.90;;;2.52;100.00;101418.44;5228961;28;20039;-49
2023/12/07 01:23:06;;;;;;;10.70;5.65;;;2.80;99.90;;;2.49;100.00;101416.53;5226980;28;20512;-49
2023/12/07 01:25:39;;;;;;;14.13;6.32;;;2.80;99.90;;;2.50;100.00;101418.31;5232192;28;20044;-47
2023/12/07 01:28:12;;;;;;;12.27;5.15;;;2.80;99.90;;;2.52;100.00;101418.44;5245037;28;20045;-53
2023/12/07 01:30:44;;;;;;;10.35;5.25;;;2.80;99.90;;;2.55;100.00;101421.25;5225885;28;20044;-47
2023/12/07 01:33:17;;;;;;;10.43;4.88;;;2.80;99.90;;;2.61;100.00;101429.44;5247765;28;20048;-48
2023/12/07 01:35:49;;;;;;;10.38;4.20;;;2.90;99.90;;;2.64;100.00;101419.38;5244398;28;20045;-48
2023/12/07 01:38:21;;;;;;;10.10;4.97;;;2.90;99.90;;;2.66;100.00;101417.78;5228569;28;20056;-52
2023/12/07 01:40:55;;;;;;;13.00;5.55;;;3.00;99.90;;;2.69;100.00;101424.09;5246908;28;20052;-49
2023/12/07 01:43:27;;;;;;;12.02;5.45;;;3.00;99.90;;;2.73;100.00;101420.06;5226558;28;20110;-47
2023/12/07 01:46:01;;;;;;;10.55;5.18;;;3.00;99.90;;;2.76;100.00;101422.88;5226628;28;20411;-51
2023/12/07 01:48:34;;;;;;;11.23;5.97;;;3.10;99.90;;;2.78;100.00;101428.13;5227886;28;20064;-47
2023/12/07 01:51:07;;;;;;;13.02;6.57;;;3.10;99.90;;;2.83;100.00;101427.72;5227002;28;20059;-50
2023/12/07 01:53:40;;;;;;;12.27;5.88;;;3.10;99.90;;;2.86;100.00;101425.34;5229892;28;20375;-47
2023/12/07 01:56:15;;;;;;;13.23;6.47;;;3.10;99.90;;;2.88;100.00;101428.06;5226588;28;20499;-47
2023/12/07 01:58:48;;;;;;;12.60;5.43;;;3.20;99.90;;;2.88;100.00;101425.50;5249579;28;20132;-49
2023/12/07 02:01:20;;;;;;;12.85;5.80;;;3.20;99.90;;;2.90;100.00;101434.22;5246609;28;20091;-51
2023/12/07 02:03:53;;;;;;;12.13;5.45;;;3.20;99.90;;;2.91;100.00;101436.00;5243421;28;20540;-47
2023/12/07 02:06:26;;;;;;;11.77;5.18;;;3.20;99.90;;;2.92;100.00;101435.22;5227157;28;20519;-48
2023/12/07 02:08:58;;;;;;;10.98;4.95;;;3.20;99.90;;;2.95;100.00;101435.47;5224844;28;20056;-47
2023/12/07 02:11:32;;;;;;;10.38;5.07;;;3.20;99.90;;;2.98;100.00;101435.69;5226134;28;20045;-51
2023/12/07 02:14:04;;;;;;;10.82;5.10;;;3.30;99.90;;;3.01;100.00;101437.63;5242118;28;20056;-47
2023/12/07 02:16:43;;;;;;;12.90;5.82;;;3.30;99.90;;;3.02;100.00;101434.25;5231342;28;20131;-51
2023/12/07 02:19:48;;;;;;;10.13;5.18;;;3.30;99.90;;;3.07;100.00;101440.66;5226453;28;20052;-49
2023/12/07 02:22:27;;;;;;;10.77;5.50;;;3.30;99.90;;;3.12;100.00;101444.44;5234168;28;20056;-50
2023/12/07 02:25:08;;;;;;;12.90;5.32;;;3.40;99.90;;;3.16;100.00;101449.06;5239580;28;20131;-47
2023/12/07 02:27:45;;;;;;;11.77;4.90;;;3.50;99.90;;;3.21;100.00;101453.78;5226998;28;20117;-47
2023/12/07 02:30:18;;;;;;;11.40;5.00;;;3.50;99.90;;;3.25;100.00;101453.19;5225513;28;20522;-49
2023/12/07 02:32:50;;;;;;;11.95;5.60;;;3.50;99.90;;;3.30;100.00;101458.69;5242044;28;20055;-47
2023/12/07 02:35:24;;;;;;;10.70;4.93;;;3.50;99.90;;;3.34;100.00;101465.88;5226698;28;20044;-48
2023/12/07 02:37:57;;;;;;;11.90;5.13;;;3.60;99.90;;;3.37;100.00;101455.78;5226194;28;20498;-48
2023/12/07 02:40:30;;;;;;;10.88;5.50;;;3.60;99.90;;;3.37;100.00;101450.63;5245336;28;20049;-49
2023/12/07 02:43:05;;;;;;;11.50;5.75;;;3.70;99.90;;;3.34;100.00;101455.59;5240651;28;20053;-49
2023/12/07 02:45:38;;;;;;;12.43;4.97;;;3.60;99.90;;;3.31;100.00;101455.34;5226484;28;20048;-48
2023/12/07 02:48:10;;;;;;;10.60;4.70;;;3.60;99.90;;;3.33;100.00;101453.78;5225862;28;20537;-53
2023/12/07 02:50:42;;;;;;;9.90;5.25;;;3.60;99.90;;;3.37;100.00;101454.91;5225184;28;20441;-51
2023/12/07 02:53:15;;;;;;;10.88;4.90;;;3.60;99.90;;;3.41;100.00;101464.66;5237722;28;20052;-49
2023/12/07 02:55:47;;;;;;;11.68;5.50;;;3.70;99.90;;;3.43;100.00;101458.81;5225802;28;20067;-50
2023/12/07 02:58:21;;;;;;;10.38;5.07;;;3.70;99.90;;;3.42;100.00;101454.47;5225494;28;20056;-50
2023/12/07 03:00:53;;;;;;;13.02;5.68;;;3.70;99.90;;;3.43;100.00;101451.09;5242402;28;20051;-49
2023/12/07 03:03:25;;;;;;;11.35;4.93;;;3.70;99.90;;;3.45;100.00;101443.47;5224988;28;20055;-47
2023/12/07 03:05:58;;;;;;;12.40;5.57;;;3.70;99.90;;;3.46;100.00;101443.59;5240060;28;20447;-48
2023/12/07 03:08:30;;;;;;;9.63;4.45;;;3.70;99.90;;;3.48;100.00;101442.03;5225379;28;20530;-48
2023/12/07 03:11:03;;;;;;;11.60;5.32;;;3.70;99.90;;;3.51;100.00;101437.06;5225723;28;20053;-51
2023/12/07 03:13:36;;;;;;;10.35;4.78;;;3.80;99.90;;;3.53;100.00;101438.09;5225101;28;20419;-49
2023/12/07 03:16:10;;;;;;;11.50;5.05;;;3.80;99.90;;;3.59;100.00;101436.75;5225891;28;20101;-51
2023/12/07 03:18:42;;;;;;;12.18;5.43;;;3.80;99.90;;;3.61;100.00;101436.09;5241416;28;20097;-48
2023/12/07 03:21:15;;;;;;;14.68;6.38;;;3.90;99.90;;;3.63;100.00;101441.34;5225272;28;20499;-47
2023/12/07 03:23:47;;;;;;;12.95;5.65;;;3.90;99.90;;;3.66;100.00;101441.56;5240938;28;20052;-48
2023/12/07 03:26:19;;;;;;;12.32;5.70;;;3.90;99.90;;;3.68;100.00;101440.91;5225251;28;20045;-52
2023/12/07 03:28:53;;;;;;;13.93;5.85;;;3.90;99.90;;;3.69;100.00;101429.78;5246877;28;20052;-51
2023/12/07 03:31:26;;;;;;;14.20;5.95;;;4.00;99.90;;;3.72;100.00;101440.34;5231399;28;20059;-55
2023/12/07 03:33:59;;;;;;;12.32;5.53;;;4.00;99.90;;;3.73;100.00;101442.13;5223215;28;20044;-49
2023/12/07 03:36:31;;;;;;;13.98;6.55;;;4.00;99.90;;;3.74;100.00;101435.28;5224505;28;20462;-47
2023/12/07 03:39:04;;;;;;;14.90;6.70;;;4.00;99.90;;;3.74;100.00;101438.75;5224421;28;20044;-48
2023/12/07 03:41:37;;;;;;;13.85;6.68;;;4.00;99.90;;;3.76;100.00;101441.44;5222850;28;20045;-51
2023/12/07 03:44:10;;;;;;;13.55;6.28;;;4.00;99.90;;;3.78;100.00;101429.53;5225283;28;20044;-48
2023/12/07 03:46:43;;;;;;;16.20;7.30;;;4.10;99.90;;;3.78;100.00;101429.53;5239514;28;21001;-48
2023/12/07 03:49:15;;;;;;;15.00;6.95;;;4.10;99.90;;;3.78;100.00;101435.63;5224776;28;20055;-48
2023/12/07 03:51:47;;;;;;;14.15;6.53;;;4.10;99.90;;;3.78;100.00;101429.53;5223829;28;20119;-48
2023/12/07 03:54:20;;;;;;;15.38;6.88;;;4.10;99.90;;;3.76;100.00;101433.69;5224703;28;20037;-47
2023/12/07 03:56:52;;;;;;;14.88;6.78;;;4.10;99.90;;;3.75;100.00;101432.81;5223605;28;20053;-50
2023/12/07 03:59:26;;;;;;;15.40;7.68;;;4.10;99.90;;;3.75;100.00;101425.06;5224329;28;20048;-53
2023/12/07 04:01:58;;;;;;;15.77;7.45;;;4.10;99.90;;;3.74;100.00;101431.03;5222266;28;20051;-47
2023/12/07 04:04:31;;;;;;;13.82;6.55;;;4.10;99.90;;;3.76;100.00;101425.97;5224805;28;20044;-53
2023/12/07 04:07:03;;;;;;;11.35;5.97;;;4.10;99.90;;;3.77;100.00;101430.34;5245089;28;20049;-51
2023/12/07 04:09:35;;;;;;;13.05;6.88;;;4.10;99.90;;;3.78;100.00;101430.47;5224072;28;20083;-49
2023/12/07 04:12:08;;;;;;;15.00;6.30;;;4.10;99.90;;;3.80;100.00;101443.47;5223892;28;20060;-47
2023/12/07 04:14:42;;;;;;;13.18;6.05;;;4.10;99.90;;;3.83;100.00;101433.34;5223901;28;20045;-48
2023/12/07 04:17:14;;;;;;;12.02;5.05;;;4.10;99.90;;;3.85;100.00;101438.63;5224721;28;20037;-48
2023/12/07 04:19:47;;;;;;;12.93;5.95;;;4.10;99.90;;;3.87;100.00;101432.81;5239705;28;20240;-48
2023/12/07 04:22:19;;;;;;;11.85;5.85;;;4.20;99.90;;;3.88;100.00;101444.91;5224026;28;20040;-48
2023/12/07 04:24:51;;;;;;;10.70;4.93;;;4.20;99.90;;;3.88;100.00;101442.31;5223796;28;20053;-53
2023/12/07 04:27:24;;;;;;;11.25;5.25;;;4.20;99.90;;;3.87;100.00;101435.38;5224220;28;20070;-48
2023/12/07 04:29:58;;;;;;;13.05;5.55;;;4.20;99.90;;;3.87;100.00;101440.53;5235417;28;20049;-49
2023/12/07 04:32:30;;;;;;;16.33;5.93;;;4.20;99.90;;;3.83;100.00;101427.31;5236544;28;20041;-50
2023/12/07 04:35:02;;;;;;;12.10;5.35;;;4.20;99.90;;;3.82;100.00;101434.16;5225240;28;20075;-50
2023/12/07 04:37:35;;;;;;;12.25;5.28;;;4.10;99.90;;;3.78;100.00;101429.53;5240640;28;20044;-48
2023/12/07 04:40:10;;;;;;;9.27;4.55;;;4.10;99.90;;;3.75;100.00;101439.66;5234532;28;20044;-49
2023/12/07 04:42:42;;;;;;;11.95;5.75;;;4.10;99.90;;;3.70;100.00;101435.84;5228685;28;20124;-50
2023/12/07 04:45:17;;;;;;;10.90;4.88;;;4.00;99.90;;;3.68;100.00;101438.31;5229963;28;20056;-48
2023/12/07 04:47:49;;;;;;;9.15;4.85;;;4.00;99.90;;;3.64;100.00;101437.97;5234250;28;20415;-48
2023/12/07 04:50:21;;;;;;;10.90;4.93;;;4.00;99.90;;;3.60;100.00;101443.72;5236948;28;20048;-48
2023/12/07 04:52:54;;;;;;;10.23;4.53;;;3.90;99.90;;;3.54;100.00;101454.47;5227083;28;20398;-47
2023/12/07 04:55:27;;;;;;;10.18;4.60;;;3.90;99.90;;;3.51;100.00;101454.22;5229061;28;20037;-52
2023/12/07 04:57:59;;;;;;;8.30;4.38;;;3.80;99.90;;;3.47;100.00;101452.22;5244308;28;20064;-50
2023/12/07 05:00:33;;;;;;;10.27;4.43;;;3.80;99.90;;;3.45;100.00;101457.25;5223714;28;20503;-48
2023/12/07 05:03:05;;;;;;;8.27;4.18;;;3.80;99.90;;;3.44;100.00;101463.19;5241375;28;20040;-50
2023/12/07 05:05:37;;;;;;;8.77;4.20;;;3.80;99.90;;;3.40;100.00;101476.66;5224212;28;20053;-49
2023/12/07 05:08:10;;;;;;;7.43;3.75;;;3.70;99.90;;;3.37;100.00;101473.84;5241179;28;20045;-48
2023/12/07 05:10:43;;;;;;;9.93;4.05;;;3.70;99.90;;;3.34;100.00;101472.72;5225336;28;20738;-49
2023/12/07 05:13:15;;;;;;;7.50;3.80;;;3.70;99.90;;;3.34;100.00;101475.31;5218006;28;20527;-51
2023/12/07 05:15:49;;;;;;;7.65;4.10;;;3.60;99.90;;;3.35;100.00;101472.84;5225540;28;20053;-53
2023/12/07 05:18:21;;;;;;;7.55;4.03;;;3.60;99.90;;;3.35;100.00;101478.00;5224281;28;20049;-48
2023/12/07 05:20:53;;;;;;;6.65;3.78;;;3.60;99.90;;;3.35;100.00;101477.09;5228264;28;20123;-53
2023/12/07 05:23:26;;;;;;;7.97;4.32;;;3.60;99.90;;;3.36;100.00;101469.47;5227211;28;20415;-51
2023/12/07 05:25:58;;;;;;;7.95;3.83;;;3.60;99.90;;;3.38;100.00;101467.00;5245700;28;20051;-49
2023/12/07 05:28:30;;;;;;;10.13;4.07;;;3.70;99.90;;;3.39;100.00;101477.44;5227337;28;20131;-50
2023/12/07 05:31:05;;;;;;;6.05;3.25;;;3.70;99.90;;;3.37;100.00;101476.41;5242338;28;20310;-47
2023/12/07 05:33:37;;;;;;;7.00;3.65;;;3.60;99.90;;;3.35;100.00;101484.81;5227371;28;20048;-49
2023/12/07 05:36:10;;;;;;;6.35;3.55;;;3.60;99.90;;;3.33;100.00;101484.72;5226473;28;20048;-48
2023/12/07 05:38:42;;;;;;;8.07;4.22;;;3.60;99.90;;;3.31;100.00;101478.53;5228396;28;20087;-51
2023/12/07 05:41:15;;;;;;;5.97;3.72;;;3.60;99.90;;;3.31;100.00;101491.41;5233859;28;20418;-47
2023/12/07 05:43:48;;;;;;;8.75;4.35;;;3.60;99.90;;;3.32;100.00;101492.31;5235505;28;21471;-49
2023/12/07 05:46:22;;;;;;;8.20;4.22;;;3.60;99.90;;;3.32;100.00;101498.34;5231744;28;20285;-48
2023/12/07 05:48:54;;;;;;;9.35;4.57;;;3.60;99.90;;;3.33;100.00;101500.19;5250027;28;20082;-47
2023/12/07 05:51:26;;;;;;;7.70;4.00;;;3.60;99.90;;;3.33;100.00;101495.03;5226701;28;20071;-53
2023/12/07 05:53:59;;;;;;;9.95;4.55;;;3.60;99.90;;;3.34;100.00;101495.91;5227487;28;20032;-48
2023/12/07 05:56:32;;;;;;;10.15;5.22;;;3.60;99.90;;;3.35;100.00;101489.97;5232251;28;20674;-49
2023/12/07 05:59:04;;;;;;;9.25;4.32;;;3.60;99.90;;;3.35;100.00;101496.03;5240669;28;20069;-49
2023/12/07 06:01:38;;;;;;;8.70;4.40;;;3.60;99.90;;;3.33;100.00;101488.97;5226171;28;20032;-46
2023/12/07 06:04:12;;;;;;;10.13;4.57;;;3.60;99.90;;;3.31;100.00;101491.41;5243520;28;20091;-48
2023/12/07 06:06:44;;;;;;;9.45;5.00;;;3.60;99.90;;;3.28;100.00;101496.34;5227001;28;20060;-48
2023/12/07 06:09:16;;;;;;;9.52;5.30;;;3.60;99.90;;;3.24;100.00;101492.63;5234524;28;20439;-48
2023/12/07 06:11:49;;;;;;;11.77;5.10;;;3.60;99.90;;;3.21;100.00;101494.09;5226277;28;20503;-48
2023/12/07 06:14:22;;;;;;;13.60;5.95;;;3.50;99.90;;;3.16;100.00;101488.59;5226807;28;20048;-49
2023/12/07 06:16:56;;;;;;;11.70;5.60;;;3.50;99.90;;;3.16;100.00;101485.13;5243421;28;20095;-48
2023/12/07 06:19:29;;;;;;;11.88;5.47;;;3.50;99.90;;;3.12;100.00;101483.09;5226347;28;20503;-47
2023/12/07 06:22:01;;;;;;;14.70;6.45;;;3.50;99.90;;;3.09;100.00;101480.28;5226618;28;20037;-48
2023/12/07 06:24:34;;;;;;;11.95;5.38;;;3.40;99.90;;;3.05;100.00;101486.88;5226213;28;20040;-48
2023/12/07 06:27:06;;;;;;;12.65;6.30;;;3.40;99.90;;;3.03;100.00;101482.41;5241256;28;20438;-49
2023/12/07 06:29:39;;;;;;;15.70;6.68;;;3.40;99.90;;;2.99;100.00;101471.84;5241687;28;20431;-48
2023/12/07 06:32:13;;;;;;;12.60;6.57;;;3.30;99.90;;;2.96;100.00;101474.22;5242450;28;20047;-48
2023/12/07 06:34:45;;;;;;;13.48;7.00;;;3.30;99.90;;;2.92;100.00;101469.59;5226747;28;20053;-49
2023/12/07 06:37:20;;;;;;;14.32;7.03;;;3.30;99.90;;;2.87;100.00;101470.94;5226366;28;20087;-47
2023/12/07 06:39:52;;;;;;;16.05;7.03;;;3.20;99.90;;;2.86;100.00;101474.28;5242720;28;20503;-49
2023/12/07 06:42:24;;;;;;;14.63;6.68;;;3.20;99.90;;;2.83;100.00;101473.16;5226705;28;20542;-50
2023/12/07 06:44:57;;;;;;;13.40;6.72;;;3.20;99.90;;;2.79;100.00;101469.44;5233552;28;20049;-51
2023/12/07 06:47:31;;;;;;;11.82;6.63;;;3.20;99.90;;;2.77;100.00;101467.53;5227647;28;20040;-49
2023/12/07 06:50:04;;;;;;;14.60;7.32;;;3.10;99.90;;;2.72;100.00;101460.34;5226275;28;20126;-47
2023/12/07 06:52:36;;;;;;;13.57;6.35;;;3.10;99.90;;;2.74;100.00;101468.22;5249398;28;20060;-48
2023/12/07 06:55:10;;;;;;;15.05;6.68;;;3.10;99.90;;;2.75;100.00;101470.00;5241677;28;20040;-50
2023/12/07 06:57:42;;;;;;;14.70;7.20;;;3.10;99.90;;;2.69;100.00;101466.97;5225839;28;20053;-49
2023/12/07 07:00:17;;;;;;;15.90;7.20;;;3.10;99.90;;;2.65;100.00;101470.06;5238313;28;20423;-51
2023/12/07 07:02:51;;;;;;;16.33;7.10;;;3.00;99.90;;;2.65;100.00;101468.38;5225073;28;20036;-49
2023/12/07 07:05:23;;;;;;;15.88;6.68;;;3.00;99.90;;;2.62;100.00;101456.97;5226062;28;20047;-51
2023/12/07 07:07:56;;;;;;;13.07;6.20;;;3.00;99.90;;;2.58;100.00;101462.66;5241366;28;20560;-51
2023/12/07 07:10:28;;;;;;;13.88;6.75;;;3.00;99.90;;;2.54;100.00;101452.88;5225196;28;20052;-48
2023/12/07 07:13:02;;;;;;;12.43;6.55;;;2.90;99.90;;;2.56;100.00;101470.28;5241214;28;20221;-49
2023/12/07 07:15:35;;;;;;;14.85;7.03;;;2.90;99.90;;;2.56;100.00;101472.84;5230549;28;20047;-52
2023/12/07 07:18:09;;;;;;;13.85;6.30;;;2.90;99.90;;;2.53;100.00;101471.69;5230541;28;20049;-47
2023/12/07 07:20:41;;;;;;;13.25;6.35;;;3.00;99.90;;;2.52;100.00;101469.91;5230447;28;20105;-48
2023/12/07 07:23:15;;;;;;;15.25;6.90;;;2.90;99.90;;;2.51;100.00;101471.59;5241168;28;20040;-48
2023/12/07 07:25:47;;;;;;;15.15;7.05;;;2.90;99.90;;;2.51;100.00;101470.69;5225189;28;20045;-48
2023/12/07 07:28:20;;;;;;;16.05;7.00;;;2.90;99.90;;;2.49;100.00;101459.38;5225955;28;20063;-47
2023/12/07 07:30:53;;;;;;;14.75;7.10;;;2.90;99.90;;;2.47;100.00;101469.53;5240476;28;20060;-51
2023/12/07 07:33:27;;;;;;;14.85;6.82;;;2.80;99.90;;;2.43;100.00;101464.94;5224777;28;20051;-47
2023/12/07 07:35:59;;;;;;;12.93;6.50;;;2.80;99.90;;;2.41;100.00;101474.22;5223591;28;20060;-48
2023/12/07 07:38:31;;;;;;;14.48;6.45;;;2.80;99.90;;;2.38;100.00;101473.97;5233057;28;20041;-48
2023/12/07 07:41:04;;;;;;;14.05;6.93;;;2.80;99.90;;;2.37;100.00;101475.66;5238662;28;20052;-48
2023/12/07 07:43:36;;;;;;;15.75;7.00;;;2.80;99.90;;;2.37;100.00;101469.63;5227231;28;20044;-49
2023/12/07 07:46:09;;;;;;;13.55;6.88;;;2.70;99.90;;;2.33;100.00;101468.47;5229267;28;20135;-50
2023/12/07 07:48:43;;;;;;;15.85;6.95;;;2.70;99.90;;;2.33;100.00;101470.16;5227877;28;20056;-47
2023/12/07 07:51:15;;;;;;;15.32;7.05;;;2.70;99.90;;;2.29;100.00;101474.16;5235916;28;20048;-48
2023/12/07 07:53:48;;;;;;;14.52;6.47;;;2.70;99.90;;;2.31;100.00;101472.59;5224073;28;20075;-47
2023/12/07 07:56:20;;;;;;;14.93;6.28;;;2.70;99.90;;;2.33;100.00;101472.72;5225189;28;20043;-47
2023/12/07 07:58:53;;;;;;;14.98;6.90;;;2.70;99.90;;;2.33;100.00;101467.56;5224513;28;20063;-49
2023/12/07 08:01:25;;;;;;;14.70;7.03;;;2.70;99.90;;;2.30;100.00;101473.38;5237082;28;20706;-47
2023/12/07 08:03:59;;;;;;;13.55;6.07;;;2.70;99.90;;;2.32;100.00;101469.25;5230023;28;20044;-51
2023/12/07 08:06:31;;;;;;;13.02;5.85;;;2.70;99.90;;;2.35;100.00;101472.09;5224713;28;20063;-47
2023/12/07 08:09:04;;;;;;;13.43;5.35;;;2.70;99.90;;;2.36;100.00;101470.41;5239113;28;20051;-49
2023/12/07 08:11:36;;;;;;;15.73;6.95;;;2.70;99.90;;;2.35;100.00;101466.03;5237050;28;20048;-48
2023/12/07 08:14:09;;;;;;;14.43;6.47;;;2.70;99.90;;;2.37;100.00;101461.91;5223819;28;20041;-48
2023/12/07 08:16:46;;;;;;;13.80;6.63;;;2.80;99.90;;;2.37;100.00;101464.47;5224200;28;20060;-47
2023/12/07 08:19:20;;;;;;;13.68;6.13;;;2.70;99.90;;;2.41;100.00;101461.34;5219298;28;20425;-51
2023/12/07 08:21:52;;;;;;;17.70;6.93;;;2.80;99.90;;;2.41;100.00;101466.47;5240258;28;20766;-50
2023/12/07 08:24:25;;;;;;;16.85;6.78;;;2.80;99.90;;;2.45;100.00;101469.44;5224474;28;20068;-50
2023/12/07 08:26:57;;;;;;;15.15;5.88;;;2.80;99.90;;;2.52;100.00;101465.66;5229725;28;20056;-48
2023/12/07 08:29:30;;;;;;;14.88;6.10;;;2.90;99.90;;;2.57;100.00;101478.88;5224549;28;20049;-47
2023/12/07 08:32:02;;;;;;;14.85;6.95;;;2.90;99.90;;;2.58;100.00;101475.53;5223152;28;20135;-48
2023/12/07 08:34:37;;;;;;;8.70;2.92;;;2.90;99.90;;;3.26;100.00;101482.47;5225580;28;20055;-51
2023/12/07 08:37:09;;;;;;;14.57;6.07;;;3.60;99.90;;;3.93;100.00;101479.66;5223934;28;20127;-50
2023/12/07 08:39:42;;;;;;;16.10;7.05;;;4.00;99.90;;;3.83;100.00;101473.72;5221527;28;20045;-48
2023/12/07 08:42:14;;;;;;;16.00;6.50;;;4.00;99.90;;;3.58;100.00;101473.63;5238900;28;20457;-49
2023/12/07 08:44:46;;;;;;;12.93;5.85;;;3.90;99.90;;;3.40;100.00;101478.34;5236533;28;20064;-49
2023/12/07 08:47:19;;;;;;;14.05;6.88;;;3.80;99.90;;;3.29;100.00;101482.69;5236914;28;20047;-48
2023/12/07 08:49:52;;;;;;;16.73;6.40;;;3.70;99.90;;;3.24;100.00;101484.91;5238934;28;20056;-48
2023/12/07 08:52:25;;;;;;;21.17;8.57;;;3.60;99.90;;;3.17;100.00;101482.66;5245507;28;20128;-49
2023/12/07 08:54:57;;;;;;;20.67;8.70;;;3.60;99.90;;;3.17;100.00;101486.91;5227676;28;20507;-53
2023/12/07 08:57:29;;;;;;;19.88;8.65;;;3.60;99.90;;;3.16;100.00;101477.41;5197442;28;20111;-51
2023/12/07 09:00:02;;;;;;;22.50;9.90;;;3.50;99.90;;;3.16;100.00;101480.88;5223811;28;20075;-50
2023/12/07 09:02:34;;;;;;;19.05;9.20;;;3.50;99.90;;;3.15;100.00;101489.38;5226966;28;20037;-48
2023/12/07 09:05:10;;;;;;;21.27;9.30;;;3.50;99.90;;;3.18;100.00;101484.44;5240175;28;20515;-48
2023/12/07 09:07:42;;;;;;;18.65;8.45;;;3.50;99.90;;;3.23;100.00;101487.38;5227560;28;20527;-51
2023/12/07 09:10:15;;;;;;;18.52;7.82;;;3.60;99.90;;;3.28;100.00;101488.63;5241204;28;20045;-48
2023/12/07 09:12:47;;;;;;;16.92;7.68;;;3.60;99.90;;;3.35;100.00;101493.44;5227659;28;20527;-50
2023/12/07 09:15:19;;;;;;;21.27;9.38;;;3.60;99.90;;;3.34;100.00;101496.81;5237063;28;20120;-49
2023/12/07 09:17:52;;;;;;;24.17;9.85;;;3.70;99.90;;;3.28;100.00;101498.03;5240712;28;20063;-51
2023/12/07 09:20:26;;;;;;;22.05;9.30;;;3.60;99.90;;;3.33;100.00;101504.44;5239540;28;20052;-55
2023/12/07 09:22:58;;;;;;;22.83;9.07;;;3.70;99.90;;;3.41;100.00;101499.06;5225467;28;20070;-48
2023/12/07 09:25:30;;;;;;;18.42;8.07;;;3.70;99.90;;;3.44;100.00;101495.81;5242495;28;20064;-52
2023/12/07 09:28:03;;;;;;;20.10;8.68;;;3.70;99.90;;;3.43;100.00;101487.19;5249928;28;20044;-49
2023/12/07 09:30:36;;;;;;;20.27;8.57;;;3.70;99.90;;;3.41;100.00;101481.03;5230843;28;20041;-49
2023/12/07 09:33:08;;;;;;;21.95;7.88;;;3.70;99.90;;;3.42;100.00;101487.97;5239421;28;20076;-49
2023/12/07 09:35:42;;;;;;;18.83;8.43;;;3.70;99.90;;;3.42;100.00;101485.38;5243876;28;20063;-48
2023/12/07 09:38:14;;;;;;;17.63;7.90;;;3.70;99.90;;;3.44;100.00;101485.50;5224064;28;20508;-48
2023/12/07 09:40:47;;;;;;;22.88;9.23;;;3.80;99.90;;;3.48;100.00;101475.53;5227637;28;20090;-48
2023/12/07 09:43:20;;;;;;;16.65;6.78;;;3.80;99.90;;;3.51;100.00;101475.75;5229172;28;20128;-48
2023/12/07 09:45:55;;;;;;;22.63;9.57;;;3.80;99.90;;;3.61;100.00;101487.66;5242654;28;20056;-48
2023/12/07 09:48:28;;;;;;;16.92;7.85;;;3.90;99.90;;;3.68;100.00;101499.31;5243482;28;20059;-50
2023/12/07 09:51:03;;;;;;;21.02;8.80;;;4.00;99.90;;;3.76;100.00;101503.34;5219436;28;20044;-48
2023/12/07 09:53:36;;;;;;;17.15;8.25;;;4.00;99.90;;;3.86;100.00;101495.50;5232739;28;20503;-51
2023/12/07 09:56:10;;;;;;;20.83;8.80;;;4.10;99.90;;;3.99;100.00;101498.19;5240819;28;20044;-48
2023/12/07 09:58:43;;;;;;;20.33;8.88;;;4.20;99.90;;;4.12;100.00;101478.41;5229422;28;20133;-49
2023/12/07 10:01:15;;;;;;;18.70;7.50;;;4.40;99.90;;;4.18;100.00;101474.59;5243576;28;20068;-49
2023/12/07 10:03:48;;;;;;;20.88;8.60;;;4.40;99.90;;;4.35;100.00;101468.00;5243194;28;20078;-48
2023/12/07 10:06:21;;;;;;;21.35;8.38;;;4.60;99.90;;;4.52;100.00;101472.69;5239209;28;20515;-52
2023/12/07 10:09:06;;;;;;;19.15;8.15;;;4.70;99.90;;;4.55;100.00;101472.88;5242990;28;20052;-51
2023/12/07 10:11:38;;;;;;;17.23;8.02;;;4.80;99.90;;;4.43;100.00;101476.28;5228062;28;20045;-50
2023/12/07 10:14:11;;;;;;;19.05;8.57;;;4.70;99.90;;;4.31;100.00;101473.78;5239375;28;20045;-51
2023/12/07 10:16:55;;;;;;;15.05;7.25;;;4.60;99.90;;;4.23;100.00;101470.63;5242929;28;20049;-48
2023/12/07 10:19:28;;;;;;;14.63;7.13;;;4.60;99.90;;;4.21;100.00;101463.56;5213049;28;20056;-49
2023/12/07 10:22:02;;;;;;;19.67;7.38;;;4.60;99.90;;;4.16;100.00;101472.66;5222245;28;20527;-49
2023/12/07 10:24:34;;;;;;;21.70;8.00;;;4.50;99.90;;;4.08;100.00;101467.84;5228602;28;20549;-48
2023/12/07 10:27:07;;;;;;;17.48;6.93;;;4.50;99.90;;;4.09;100.00;101459.31;5238139;28;20372;-51
2023/12/07 10:29:39;;;;;;;16.13;7.32;;;4.40;99.90;;;4.15;100.00;101457.97;5242775;28;20040;-52
2023/12/07 10:32:12;;;;;;;14.50;6.82;;;4.50;99.90;;;5.16;100.00;101451.25;5225182;28;20143;-50
2023/12/07 10:34:46;;;;;;;18.48;8.15;;;5.20;99.90;;;5.32;100.00;101452.25;5242629;28;20059;-50
2023/12/07 10:37:20;;;;;;;15.05;7.57;;;5.40;99.90;;;5.10;100.00;101450.84;5232696;28;20041;-48